createdAt,value
2022-10-03T00:02:36.564Z,7.67
2022-10-03T00:07:43.346Z,9.53
2022-10-03T00:13:19.885Z,7.73
2022-10-03T00:18:35.749Z,5.93
2022-10-03T00:23:43.675Z,4.53
2022-10-03T00:29:07.094Z,6.30
2022-10-03T00:34:33.202Z,12.33
2022-10-03T00:39:56.765Z,4.77
2022-10-03T00:45:34.014Z,4.50
2022-10-03T00:51:01.462Z,9.60
2022-10-03T00:56:42.905Z,7.60
2022-10-03T01:01:48.899Z,5.77
2022-10-03T01:07:10.984Z,5.70
2022-10-03T01:12:35.546Z,9.13
2022-10-03T01:18:10.046Z,12.47
2022-10-03T01:23:34.844Z,8.43
2022-10-03T01:29:02.486Z,10.80
2022-10-03T01:34:18.754Z,8.77
2022-10-03T01:39:58.893Z,8.30
2022-10-03T01:45:15.983Z,10.30
2022-10-03T01:50:37.696Z,11.70
2022-10-03T01:56:05.105Z,8.43
2022-10-03T02:01:15.976Z,10.07
2022-10-03T02:06:28.163Z,7.83
2022-10-03T02:11:41.003Z,10.47
2022-10-03T02:17:09.324Z,9.87
2022-10-03T02:22:56.744Z,8.80
2022-10-03T02:28:12.144Z,8.57
2022-10-03T02:33:21.149Z,8.00
2022-10-03T02:38:45.686Z,8.40
2022-10-03T02:44:16.045Z,7.03
2022-10-03T02:49:48.527Z,5.63
2022-10-03T02:54:58.626Z,9.07
2022-10-03T03:00:09.865Z,6.33
2022-10-03T03:05:28.123Z,9.90
2022-10-03T03:10:45.106Z,7.17
2022-10-03T03:16:21.268Z,4.70
2022-10-03T03:21:40.383Z,7.57
2022-10-03T03:26:46.943Z,5.17
2022-10-03T03:32:39.386Z,6.90
2022-10-03T03:38:03.634Z,6.70
2022-10-03T03:43:38.036Z,5.77
2022-10-03T03:49:02.409Z,3.47
2022-10-03T03:54:36.040Z,5.57
2022-10-03T03:59:50.765Z,6.70
2022-10-03T04:05:27.129Z,7.73
2022-10-03T04:10:53.978Z,3.43
2022-10-03T04:16:46.003Z,8.13
2022-10-03T04:21:57.703Z,4.03
2022-10-03T04:27:43.170Z,4.67
2022-10-03T04:33:02.220Z,6.40
2022-10-03T04:38:44.950Z,7.40
2022-10-03T04:44:06.726Z,4.90
2022-10-03T04:49:24.631Z,6.67
2022-10-03T04:54:31.660Z,3.67
2022-10-03T04:59:59.929Z,4.03
2022-10-03T05:05:28.072Z,4.40
2022-10-03T05:10:40.657Z,4.20
2022-10-03T05:16:08.246Z,3.50
2022-10-03T05:21:17.250Z,5.83
2022-10-03T05:26:50.151Z,2.93
2022-10-03T05:32:00.295Z,4.50
2022-10-03T05:37:25.121Z,2.53
2022-10-03T05:42:52.340Z,2.93
2022-10-03T05:48:14.103Z,5.83
2022-10-03T05:53:29.651Z,2.70
2022-10-03T05:58:54.932Z,3.53
2022-10-03T06:04:05.923Z,1.90
2022-10-03T06:09:35.962Z,1.90
2022-10-03T06:14:45.208Z,4.13
2022-10-03T06:19:51.690Z,3.00
2022-10-03T06:25:22.584Z,2.40
2022-10-03T06:30:47.273Z,4.03
2022-10-03T06:36:24.484Z,5.10
2022-10-03T06:41:40.057Z,4.83
2022-10-03T06:47:23.690Z,3.53
2022-10-03T06:53:03.731Z,5.13
2022-10-03T06:58:25.465Z,6.40
2022-10-03T07:03:41.338Z,3.80
2022-10-03T07:08:45.928Z,4.00
2022-10-03T07:14:19.099Z,5.10
2022-10-03T07:19:46.158Z,7.00
2022-10-03T07:25:21.190Z,4.43
2022-10-03T07:30:28.275Z,4.80
2022-10-03T07:36:31.630Z,7.23
2022-10-03T07:42:01.070Z,3.93
2022-10-03T07:47:42.291Z,6.80
2022-10-03T07:53:10.757Z,5.33
2022-10-03T07:58:34.593Z,6.33
2022-10-03T08:03:55.640Z,4.17
2022-10-03T08:09:17.501Z,7.30
2022-10-03T08:14:50.108Z,7.43
2022-10-03T08:20:08.011Z,6.00
2022-10-03T08:25:32.344Z,4.60
2022-10-03T08:30:54.326Z,6.30
2022-10-03T08:36:39.275Z,5.47
2022-10-03T08:42:14.732Z,6.23
2022-10-03T08:48:06.016Z,6.53
2022-10-03T08:53:37.504Z,6.20
2022-10-03T08:58:44.065Z,6.03
2022-10-03T09:04:10.410Z,5.33
2022-10-03T09:09:42.848Z,6.90
2022-10-03T09:14:48.659Z,6.43
2022-10-03T09:20:16.995Z,4.43
2022-10-03T09:25:45.482Z,5.77
2022-10-03T09:31:10.190Z,5.70
2022-10-03T09:36:32.509Z,2.83
2022-10-03T09:42:02.232Z,2.83
2022-10-03T09:47:23.509Z,3.03
2022-10-03T09:52:38.742Z,3.13
2022-10-03T09:58:06.970Z,3.40
2022-10-03T10:03:28.223Z,2.63
2022-10-03T10:08:40.248Z,3.47
2022-10-03T10:14:10.503Z,3.27
2022-10-03T10:19:40.129Z,2.93
2022-10-03T10:25:25.493Z,2.80
2022-10-03T10:31:02.333Z,3.23
2022-10-03T10:36:43.918Z,5.43
2022-10-03T10:42:02.198Z,3.43
2022-10-03T10:47:25.047Z,4.30
2022-10-03T10:52:49.680Z,5.23
2022-10-03T10:58:30.288Z,5.17
2022-10-03T11:03:55.064Z,5.07
2022-10-03T11:09:22.569Z,4.63
2022-10-03T11:15:00.213Z,7.10
2022-10-03T11:20:37.402Z,6.80
2022-10-03T11:25:54.448Z,3.20
2022-10-03T11:31:20.310Z,5.13
2022-10-03T11:36:35.221Z,3.47
2022-10-03T11:42:02.810Z,11.50
2022-10-03T11:47:35.561Z,3.73
2022-10-03T11:53:07.368Z,3.27
2022-10-03T11:58:34.525Z,2.53
2022-10-03T12:03:49.641Z,2.90
2022-10-03T12:09:23.297Z,2.63
2022-10-03T12:14:31.905Z,2.37
2022-10-03T12:19:43.563Z,3.27
2022-10-03T12:24:48.300Z,4.83
2022-10-03T12:30:03.110Z,3.23
2022-10-03T12:35:26.139Z,2.50
2022-10-03T12:40:44.398Z,2.53
2022-10-03T12:46:00.645Z,4.20
2022-10-03T12:51:37.340Z,1.83
2022-10-03T12:56:56.717Z,1.80
2022-10-03T13:02:45.571Z,2.30
2022-10-03T13:08:02.565Z,6.23
2022-10-03T13:13:32.926Z,3.20
2022-10-03T13:18:59.541Z,3.07
2022-10-03T13:24:13.888Z,6.90
2022-10-03T13:29:30.696Z,3.10
2022-10-03T13:34:56.051Z,3.17
2022-10-03T13:40:09.614Z,5.93
2022-10-03T13:45:25.830Z,6.10
2022-10-03T13:50:59.300Z,3.30
2022-10-03T13:56:31.030Z,4.07
2022-10-03T14:01:49.143Z,5.00
2022-10-03T14:07:02.844Z,3.93
2022-10-03T14:12:51.056Z,3.27
2022-10-03T14:18:00.840Z,3.37
2022-10-03T14:23:22.748Z,6.03
2022-10-03T14:28:47.107Z,3.57
2022-10-03T14:34:09.407Z,5.20
2022-10-03T14:39:38.621Z,4.23
2022-10-03T14:44:46.436Z,4.43
2022-10-03T14:49:59.578Z,3.57
2022-10-03T14:55:14.056Z,4.17
2022-10-03T15:00:29.497Z,8.40
2022-10-03T15:05:36.839Z,7.17
2022-10-03T15:10:41.157Z,4.43
2022-10-03T15:15:48.183Z,4.30
2022-10-03T15:20:55.189Z,5.53
2022-10-03T15:25:59.360Z,5.47
2022-10-03T15:31:15.162Z,3.50
2022-10-03T15:36:43.169Z,4.40
2022-10-03T15:42:15.769Z,5.00
2022-10-03T15:47:23.559Z,7.60
2022-10-03T15:52:43.299Z,4.63
2022-10-03T15:57:53.424Z,6.17
2022-10-03T16:03:37.520Z,5.80
2022-10-03T16:09:00.000Z,5.00
2022-10-03T16:14:18.853Z,6.50
2022-10-03T16:19:55.797Z,5.13
2022-10-03T16:25:19.116Z,6.13
2022-10-03T16:30:26.980Z,6.47
2022-10-03T16:35:44.931Z,5.80
2022-10-03T16:40:55.659Z,6.30
2022-10-03T16:46:04.441Z,3.30
2022-10-03T16:51:33.360Z,5.20
2022-10-03T16:56:45.329Z,3.90
2022-10-03T17:01:57.064Z,7.27
2022-10-03T17:07:04.799Z,2.43
2022-10-03T17:12:15.161Z,3.57
2022-10-03T17:17:29.610Z,3.10
2022-10-03T17:22:45.350Z,4.47
2022-10-03T17:27:51.172Z,4.70
2022-10-03T17:33:01.110Z,6.70
2022-10-03T17:38:47.750Z,5.30
2022-10-03T17:43:59.371Z,6.30
2022-10-03T17:49:32.165Z,8.03
2022-10-03T17:54:39.850Z,6.33
2022-10-03T17:59:55.970Z,5.23
2022-10-03T18:05:17.320Z,8.13
2022-10-03T18:10:34.019Z,8.80
2022-10-03T18:15:44.019Z,5.07
2022-10-03T18:21:16.410Z,6.20
2022-10-03T18:26:43.099Z,8.20
2022-10-03T18:31:52.827Z,7.83
2022-10-03T18:36:57.784Z,8.33
2022-10-03T18:42:03.370Z,9.77
2022-10-03T18:47:34.470Z,11.07
2022-10-03T18:52:47.147Z,6.60
2022-10-03T18:58:02.168Z,9.40
2022-10-03T19:03:19.650Z,8.67
2022-10-03T19:08:39.329Z,8.67
2022-10-03T19:13:55.026Z,6.53
2022-10-03T19:19:16.232Z,8.93
2022-10-03T19:24:56.587Z,11.57
2022-10-03T19:29:58.480Z,8.97
2022-10-03T19:35:06.071Z,8.90
2022-10-03T19:40:45.678Z,8.50
2022-10-03T19:45:54.785Z,11.10
2022-10-03T19:51:21.463Z,11.00
2022-10-03T19:56:34.568Z,10.43
2022-10-03T20:01:48.784Z,15.80
2022-10-03T20:06:54.258Z,12.27
2022-10-03T20:12:12.396Z,9.73
2022-10-03T20:17:24.168Z,9.97
2022-10-03T20:22:31.718Z,12.40
2022-10-03T20:27:46.660Z,9.00
2022-10-03T20:32:51.570Z,9.43
2022-10-03T20:38:13.588Z,12.60
2022-10-03T20:43:20.672Z,14.07
2022-10-03T20:48:29.574Z,11.77
2022-10-03T20:53:33.552Z,8.30
2022-10-03T20:58:50.983Z,7.43
2022-10-03T21:04:19.995Z,6.77
2022-10-03T21:09:51.169Z,10.27
2022-10-03T21:15:03.362Z,8.30
2022-10-03T21:20:12.319Z,6.90
2022-10-03T21:25:29.709Z,9.20
2022-10-03T21:30:52.472Z,9.57
2022-10-03T21:36:15.060Z,6.67
2022-10-03T21:41:58.108Z,10.37
2022-10-03T21:47:42.740Z,7.40
2022-10-03T21:52:59.921Z,11.53
2022-10-03T21:58:24.670Z,10.37
2022-10-03T22:03:35.850Z,10.77
2022-10-03T22:08:43.700Z,7.57
2022-10-03T22:14:16.942Z,9.50
2022-10-03T22:19:27.777Z,7.10
2022-10-03T22:24:54.839Z,7.73
2022-10-03T22:30:09.273Z,13.00
2022-10-03T22:35:40.509Z,11.27
2022-10-03T22:40:46.441Z,10.77
2022-10-03T22:45:52.515Z,9.70
2022-10-03T22:50:57.131Z,12.80
2022-10-03T22:56:20.980Z,14.90
2022-10-03T23:01:25.090Z,10.20
2022-10-03T23:07:09.330Z,9.70
2022-10-03T23:12:13.220Z,15.33
2022-10-03T23:17:47.758Z,9.67
2022-10-03T23:22:56.450Z,9.37
2022-10-03T23:28:12.022Z,8.57
2022-10-03T23:33:39.309Z,16.27
2022-10-03T23:38:42.438Z,11.80
2022-10-03T23:43:45.524Z,14.07
2022-10-03T23:49:00.779Z,12.67
2022-10-03T23:54:06.630Z,10.40
2022-10-03T23:59:15.595Z,9.17
